createdAt,value
2023-03-01T00:01:33.260Z,2.40
2023-03-01T00:04:01.128Z,2.40
2023-03-01T00:06:29.494Z,3.17
2023-03-01T00:08:57.405Z,2.83
2023-03-01T00:11:26.461Z,2.67
2023-03-01T00:13:56.242Z,1.83
2023-03-01T00:16:31.814Z,2.95
2023-03-01T00:18:59.972Z,2.60
2023-03-01T00:21:28.201Z,2.03
2023-03-01T00:23:56.378Z,2.47
2023-03-01T00:26:27.756Z,2.20
2023-03-01T00:28:57.132Z,2.70
2023-03-01T00:31:30.369Z,2.53
2023-03-01T00:36:27.979Z,2.55
2023-03-01T00:38:55.895Z,2.42
2023-03-01T00:41:28.255Z,2.50
2023-03-01T00:43:55.908Z,3.53
2023-03-01T00:46:25.121Z,2.30
2023-03-01T00:48:52.928Z,3.70
2023-03-01T00:51:22.331Z,1.95
2023-03-01T00:53:52.195Z,2.55
2023-03-01T00:56:19.848Z,2.95
2023-03-01T00:58:47.488Z,3.30
2023-03-01T01:01:19.857Z,2.67
2023-03-01T01:03:57.979Z,2.53
2023-03-01T01:06:28.260Z,3.05
2023-03-01T01:08:56.336Z,2.30
2023-03-01T01:11:27.597Z,2.35
2023-03-01T01:13:58.272Z,3.35
2023-03-01T01:16:26.934Z,1.90
2023-03-01T01:18:54.479Z,2.55
2023-03-01T01:21:23.760Z,2.90
2023-03-01T01:23:52.228Z,2.85
2023-03-01T01:26:30.449Z,3.80
2023-03-01T01:28:58.617Z,2.25
2023-03-01T01:31:26.762Z,2.72
2023-03-01T01:33:55.021Z,2.70
2023-03-01T01:36:22.792Z,3.20
2023-03-01T01:38:50.309Z,2.83
2023-03-01T01:41:17.878Z,3.78
2023-03-01T01:43:46.653Z,3.80
2023-03-01T01:46:34.671Z,2.78
2023-03-01T01:49:03.551Z,3.75
2023-03-01T01:51:39.906Z,3.10
2023-03-01T01:54:11.902Z,3.50
2023-03-01T01:56:40.024Z,3.58
2023-03-01T01:59:07.630Z,4.07
2023-03-01T02:01:35.820Z,3.83
2023-03-01T02:04:03.413Z,5.18
2023-03-01T02:06:43.951Z,3.58
2023-03-01T02:09:15.188Z,2.83
2023-03-01T02:11:43.379Z,3.45
2023-03-01T02:14:10.955Z,3.97
2023-03-01T02:16:38.638Z,4.13
2023-03-01T02:19:09.647Z,4.53
2023-03-01T02:21:43.548Z,4.13
2023-03-01T02:24:23.135Z,2.80
2023-03-01T02:26:52.023Z,3.70
2023-03-01T02:29:19.688Z,4.63
2023-03-01T02:31:47.362Z,3.97
2023-03-01T02:34:17.582Z,4.95
2023-03-01T02:36:47.884Z,5.13
2023-03-01T02:39:24.136Z,4.55
2023-03-01T02:41:53.184Z,4.93
2023-03-01T02:44:21.354Z,5.85
2023-03-01T02:46:50.815Z,5.68
2023-03-01T02:49:23.006Z,5.25
2023-03-01T02:51:57.013Z,6.25
2023-03-01T02:54:38.822Z,5.57
2023-03-01T02:57:06.569Z,7.60
2023-03-01T02:59:40.784Z,5.32
2023-03-01T03:02:09.371Z,6.85
2023-03-01T03:04:37.132Z,6.63
2023-03-01T03:07:04.623Z,6.38
2023-03-01T03:09:32.245Z,6.25
2023-03-01T03:11:59.763Z,5.78
2023-03-01T03:14:27.408Z,6.95
2023-03-01T03:16:54.995Z,6.25
2023-03-01T03:19:22.696Z,6.47
2023-03-01T03:21:51.163Z,6.97
2023-03-01T03:24:20.036Z,7.75
2023-03-01T03:26:47.627Z,7.43
2023-03-01T03:29:15.857Z,6.70
2023-03-01T03:31:43.478Z,7.63
2023-03-01T03:34:19.318Z,7.03
2023-03-01T03:36:47.682Z,7.72
2023-03-01T03:39:15.205Z,5.75
2023-03-01T03:41:42.896Z,5.80
2023-03-01T03:44:10.488Z,5.85
2023-03-01T03:46:38.084Z,5.82
2023-03-01T03:49:05.589Z,6.65
2023-03-01T03:51:33.236Z,6.63
2023-03-01T03:54:00.706Z,5.78
2023-03-01T03:56:28.914Z,6.68
2023-03-01T03:58:56.584Z,6.22
2023-03-01T04:01:24.632Z,6.53
2023-03-01T04:03:56.772Z,6.43
2023-03-01T04:06:24.401Z,6.00
2023-03-01T04:08:52.676Z,6.75
2023-03-01T04:11:29.026Z,6.00
2023-03-01T04:13:57.972Z,6.97
2023-03-01T04:16:25.786Z,4.43
2023-03-01T04:18:55.203Z,5.55
2023-03-01T04:21:22.812Z,5.63
2023-03-01T04:23:54.061Z,5.68
2023-03-01T04:26:25.089Z,5.68
2023-03-01T04:28:52.595Z,5.72
2023-03-01T04:31:22.861Z,7.85
2023-03-01T04:33:55.115Z,5.38
2023-03-01T04:36:24.428Z,5.78
2023-03-01T04:38:52.134Z,7.50
2023-03-01T04:41:21.432Z,5.82
2023-03-01T04:43:50.031Z,6.07
2023-03-01T04:46:18.963Z,7.28
2023-03-01T04:48:46.879Z,8.00
2023-03-01T04:51:18.170Z,11.43
2023-03-01T04:53:46.225Z,8.38
2023-03-01T04:56:15.524Z,11.82
2023-03-01T04:58:43.041Z,7.75
2023-03-01T05:01:16.775Z,7.70
2023-03-01T05:03:49.043Z,7.50
2023-03-01T05:06:17.310Z,9.57
2023-03-01T05:08:45.354Z,8.13
2023-03-01T05:11:13.123Z,9.20
2023-03-01T05:13:45.702Z,18.33
2023-03-01T05:16:13.589Z,14.57
2023-03-01T05:18:41.930Z,12.90
2023-03-01T05:21:10.806Z,7.30
2023-03-01T05:23:39.038Z,6.85
2023-03-01T05:26:09.528Z,8.68
2023-03-01T05:28:39.613Z,10.90
2023-03-01T05:31:11.162Z,9.55
2023-03-01T05:33:40.404Z,6.57
2023-03-01T05:36:09.233Z,11.80
2023-03-01T05:38:36.945Z,7.10
2023-03-01T05:41:05.566Z,8.95
2023-03-01T05:43:36.084Z,11.73
2023-03-01T05:46:03.929Z,8.98
2023-03-01T05:48:31.767Z,8.48
2023-03-01T05:51:01.779Z,6.40
2023-03-01T05:53:29.354Z,9.45
2023-03-01T05:55:56.887Z,11.70
2023-03-01T05:58:24.452Z,7.60
2023-03-01T06:00:53.983Z,9.68
2023-03-01T06:03:22.357Z,9.20
2023-03-01T06:05:50.012Z,9.77
2023-03-01T06:08:17.563Z,11.85
2023-03-01T06:10:45.132Z,10.10
2023-03-01T06:13:13.444Z,8.27
2023-03-01T06:15:41.007Z,8.45
2023-03-01T06:18:08.604Z,8.50
2023-03-01T06:20:36.130Z,8.45
2023-03-01T06:23:04.011Z,7.90
2023-03-01T06:25:31.633Z,9.00
2023-03-01T06:27:59.437Z,9.20
2023-03-01T06:30:27.599Z,9.63
2023-03-01T06:33:02.509Z,8.20
2023-03-01T06:35:32.420Z,8.85
2023-03-01T06:38:01.863Z,12.45
2023-03-01T06:40:29.651Z,8.38
2023-03-01T06:42:57.155Z,8.40
2023-03-01T06:45:24.786Z,7.53
2023-03-01T06:47:52.417Z,11.20
2023-03-01T06:50:20.427Z,9.52
2023-03-01T06:55:14.857Z,9.68
2023-03-01T06:57:42.667Z,9.98
2023-03-01T07:00:10.561Z,9.75
2023-03-01T07:02:38.110Z,9.55
2023-03-01T07:05:05.844Z,9.73
2023-03-01T07:07:33.524Z,9.85
2023-03-01T07:10:01.066Z,10.75
2023-03-01T07:12:28.624Z,8.02
2023-03-01T07:14:56.127Z,6.65
2023-03-01T07:17:23.677Z,10.57
2023-03-01T07:19:51.198Z,8.80
2023-03-01T07:22:18.715Z,8.30
2023-03-01T07:24:46.226Z,9.00
2023-03-01T07:27:13.813Z,8.60
2023-03-01T07:29:41.393Z,6.28
2023-03-01T07:32:09.534Z,8.05
2023-03-01T07:34:40.084Z,6.72
2023-03-01T07:37:07.575Z,8.05
2023-03-01T07:39:35.340Z,6.82
2023-03-01T07:42:02.841Z,7.63
2023-03-01T07:44:30.320Z,6.93
2023-03-01T07:46:59.790Z,6.25
2023-03-01T07:49:28.446Z,6.15
2023-03-01T07:51:56.001Z,6.78
2023-03-01T07:54:23.728Z,5.22
2023-03-01T07:56:51.209Z,5.90
2023-03-01T07:59:19.498Z,6.68
2023-03-01T08:01:47.090Z,6.28
2023-03-01T08:04:14.819Z,5.30
2023-03-01T08:06:42.398Z,5.78
2023-03-01T08:09:10.263Z,5.65
2023-03-01T08:11:37.820Z,5.28
2023-03-01T08:14:05.560Z,6.20
2023-03-01T08:16:35.087Z,6.15
2023-03-01T08:19:10.070Z,4.43
2023-03-01T08:21:37.901Z,6.57
2023-03-01T08:24:06.382Z,6.15
2023-03-01T08:26:34.611Z,6.40
2023-03-01T08:29:02.311Z,6.38
2023-03-01T08:31:31.694Z,5.03
2023-03-01T08:34:01.171Z,5.95
2023-03-01T08:36:30.058Z,6.30
2023-03-01T08:38:57.980Z,4.95
2023-03-01T08:41:25.943Z,5.22
2023-03-01T08:43:54.435Z,5.57
2023-03-01T08:46:21.967Z,6.03
2023-03-01T08:48:50.257Z,6.18
2023-03-01T08:51:19.411Z,5.90
2023-03-01T08:53:47.407Z,6.53
2023-03-01T08:56:15.221Z,6.55
2023-03-01T08:58:45.581Z,3.97
2023-03-01T09:01:14.229Z,7.07
2023-03-01T09:03:42.015Z,5.13
2023-03-01T09:06:12.976Z,5.00
2023-03-01T09:08:41.691Z,5.05
2023-03-01T09:11:10.526Z,5.68
2023-03-01T09:13:38.372Z,5.68
2023-03-01T09:16:07.004Z,5.63
2023-03-01T09:18:35.127Z,4.28
2023-03-01T09:21:03.868Z,4.70
2023-03-01T09:23:31.444Z,6.35
2023-03-01T09:25:58.951Z,5.38
2023-03-01T09:28:30.124Z,4.97
2023-03-01T09:31:01.660Z,5.53
2023-03-01T09:33:33.111Z,5.55
2023-03-01T09:36:04.785Z,5.30
2023-03-01T09:38:32.983Z,6.25
2023-03-01T09:41:01.581Z,5.28
2023-03-01T09:43:38.326Z,5.78
2023-03-01T09:46:07.613Z,4.22
2023-03-01T09:48:39.120Z,4.88
2023-03-01T09:51:12.660Z,5.32
2023-03-01T09:53:40.323Z,5.55
2023-03-01T09:56:17.384Z,5.10
2023-03-01T09:58:44.948Z,4.75
2023-03-01T10:01:21.983Z,5.05
2023-03-01T10:04:08.124Z,4.95
2023-03-01T10:06:35.787Z,5.25
2023-03-01T10:09:19.836Z,6.00
2023-03-01T10:11:48.790Z,5.28
2023-03-01T10:14:34.997Z,4.70
2023-03-01T10:17:05.015Z,6.07
2023-03-01T10:19:34.195Z,4.43
2023-03-01T10:22:05.260Z,4.97
2023-03-01T10:24:36.258Z,6.13
2023-03-01T10:27:08.338Z,5.30
2023-03-01T10:30:02.135Z,4.95
2023-03-01T10:34:57.030Z,4.30
2023-03-01T10:37:26.446Z,5.95
2023-03-01T10:39:58.658Z,5.72
2023-03-01T10:42:36.533Z,4.63
2023-03-01T10:45:37.231Z,3.88
2023-03-01T10:48:10.938Z,5.40
2023-03-01T10:50:41.293Z,3.80
2023-03-01T10:53:21.405Z,3.83
2023-03-01T10:55:49.275Z,4.78
2023-03-01T10:58:16.742Z,3.40
2023-03-01T11:00:52.935Z,4.38
2023-03-01T11:03:27.794Z,5.47
2023-03-01T11:06:17.923Z,4.22
2023-03-01T11:08:46.848Z,4.85
2023-03-01T11:11:14.792Z,5.60
2023-03-01T11:13:58.826Z,4.97
2023-03-01T11:16:27.786Z,4.82
2023-03-01T11:18:59.553Z,4.97
2023-03-01T11:21:28.633Z,4.13
2023-03-01T11:23:56.324Z,5.10
2023-03-01T11:26:26.884Z,4.65
2023-03-01T11:28:59.033Z,4.35
2023-03-01T11:31:27.649Z,4.07
2023-03-01T11:34:14.412Z,3.83
2023-03-01T11:36:41.973Z,4.68
2023-03-01T11:39:28.054Z,4.75
2023-03-01T11:42:12.898Z,4.80
2023-03-01T11:44:48.272Z,5.40
2023-03-01T11:47:21.994Z,5.18
2023-03-01T11:50:15.810Z,4.20
2023-03-01T11:53:02.438Z,4.50
2023-03-01T11:55:39.183Z,3.58
2023-03-01T11:58:25.290Z,4.13
2023-03-01T12:01:16.834Z,6.15
2023-03-01T12:03:50.169Z,5.13
2023-03-01T12:08:53.452Z,4.28
2023-03-01T12:11:36.363Z,3.60
2023-03-01T12:14:15.299Z,4.15
2023-03-01T12:16:54.862Z,5.00
2023-03-01T12:19:48.642Z,5.55
2023-03-01T12:22:22.706Z,5.43
2023-03-01T12:24:59.473Z,4.10
2023-03-01T12:27:29.523Z,5.13
2023-03-01T12:30:05.160Z,5.32
2023-03-01T12:32:48.206Z,6.32
2023-03-01T12:35:29.997Z,4.55
2023-03-01T12:38:27.193Z,4.82
2023-03-01T12:40:57.787Z,5.18
2023-03-01T12:43:44.037Z,5.80
2023-03-01T12:46:23.075Z,3.95
2023-03-01T12:48:56.482Z,4.05
2023-03-01T12:53:53.374Z,4.22
2023-03-01T12:56:25.012Z,4.68
2023-03-01T12:59:13.759Z,5.90
2023-03-01T13:01:44.371Z,3.70
2023-03-01T13:04:38.492Z,5.03
2023-03-01T13:07:18.667Z,6.40
2023-03-01T13:09:51.668Z,5.50
2023-03-01T13:12:37.662Z,4.53
2023-03-01T13:15:05.788Z,5.72
2023-03-01T13:17:34.624Z,4.78
2023-03-01T13:20:02.693Z,5.25
2023-03-01T13:22:39.727Z,4.50
2023-03-01T13:25:16.806Z,5.32
2023-03-01T13:27:46.653Z,4.80
2023-03-01T13:30:32.804Z,5.40
2023-03-01T13:33:18.617Z,4.07
2023-03-01T13:35:46.535Z,3.90
2023-03-01T13:38:32.987Z,4.85
2023-03-01T13:41:01.681Z,4.82
2023-03-01T13:43:37.549Z,4.63
2023-03-01T13:46:12.917Z,3.40
2023-03-01T13:48:41.918Z,4.60
2023-03-01T13:51:10.805Z,4.88
2023-03-01T13:53:41.061Z,4.10
2023-03-01T13:56:13.995Z,4.22
2023-03-01T13:58:53.475Z,6.40
2023-03-01T14:01:28.814Z,4.63
2023-03-01T14:04:00.313Z,4.30
2023-03-01T14:06:32.627Z,4.18
2023-03-01T14:09:23.220Z,3.97
2023-03-01T14:11:56.917Z,4.13
2023-03-01T14:14:24.559Z,4.65
2023-03-01T14:17:01.987Z,3.83
2023-03-01T14:19:33.632Z,5.28
2023-03-01T14:22:05.251Z,4.03
2023-03-01T14:24:34.624Z,4.63
2023-03-01T14:27:04.296Z,4.05
2023-03-01T14:29:39.436Z,5.57
2023-03-01T14:32:10.864Z,3.92
2023-03-01T14:34:44.205Z,3.15
2023-03-01T14:39:39.079Z,3.25
2023-03-01T14:42:15.311Z,3.22
2023-03-01T14:44:51.257Z,3.28
2023-03-01T14:47:32.475Z,3.60
2023-03-01T14:50:09.740Z,3.83
2023-03-01T14:52:39.770Z,3.10
2023-03-01T14:55:09.027Z,3.78
2023-03-01T14:57:36.532Z,3.88
2023-03-01T15:00:06.938Z,4.60
2023-03-01T15:02:34.774Z,3.90
2023-03-01T15:05:08.117Z,3.85
2023-03-01T15:07:38.871Z,2.63
2023-03-01T15:10:08.326Z,4.32
2023-03-01T15:12:41.007Z,2.75
2023-03-01T15:15:22.177Z,3.70
2023-03-01T15:17:56.914Z,3.42
2023-03-01T15:20:28.145Z,3.50
2023-03-01T15:22:56.595Z,5.97
2023-03-01T15:25:27.374Z,3.50
2023-03-01T15:27:56.607Z,3.50
2023-03-01T15:30:25.613Z,3.65
2023-03-01T15:33:20.859Z,3.63
2023-03-01T15:35:54.594Z,4.28
2023-03-01T15:38:29.649Z,3.90
2023-03-01T15:40:58.243Z,3.35
2023-03-01T15:43:44.150Z,3.47
2023-03-01T15:46:39.237Z,3.78
2023-03-01T15:49:22.993Z,2.70
2023-03-01T15:51:56.945Z,3.95
2023-03-01T15:54:27.028Z,3.20
2023-03-01T15:56:54.564Z,3.35
2023-03-01T15:59:23.906Z,4.85
2023-03-01T16:01:51.488Z,3.38
2023-03-01T16:04:24.442Z,4.78
2023-03-01T16:06:56.976Z,3.42
2023-03-01T16:09:25.405Z,3.60
2023-03-01T16:11:53.444Z,4.20
2023-03-01T16:14:21.295Z,2.80
2023-03-01T16:16:49.732Z,3.25
2023-03-01T16:19:18.113Z,3.28
2023-03-01T16:21:48.471Z,3.03
2023-03-01T16:24:16.249Z,3.22
2023-03-01T16:26:44.298Z,3.95
2023-03-01T16:29:11.890Z,4.03
2023-03-01T16:31:40.157Z,2.80
2023-03-01T16:34:07.798Z,3.63
2023-03-01T16:36:35.456Z,2.42
2023-03-01T16:39:04.267Z,3.25
2023-03-01T16:41:35.349Z,4.13
2023-03-01T16:44:03.064Z,2.63
2023-03-01T16:46:30.641Z,3.65
2023-03-01T16:48:58.544Z,3.70
2023-03-01T16:51:26.676Z,4.85
2023-03-01T16:53:55.212Z,3.97
2023-03-01T16:56:22.910Z,3.63
2023-03-01T16:58:50.761Z,4.60
2023-03-01T17:01:19.819Z,3.97
2023-03-01T17:03:48.603Z,3.88
2023-03-01T17:06:17.949Z,3.42
2023-03-01T17:08:45.782Z,2.90
2023-03-01T17:11:14.794Z,3.92
2023-03-01T17:13:42.789Z,3.53
2023-03-01T17:16:11.853Z,4.13
2023-03-01T17:18:39.527Z,3.80
2023-03-01T17:21:08.742Z,4.45
2023-03-01T17:23:37.443Z,3.03
2023-03-01T17:26:05.016Z,4.68
2023-03-01T17:28:33.710Z,3.85
2023-03-01T17:31:01.997Z,4.13
2023-03-01T17:33:31.702Z,4.80
2023-03-01T17:36:00.458Z,4.38
2023-03-01T17:38:28.307Z,3.45
2023-03-01T17:40:55.801Z,4.72
2023-03-01T17:43:23.390Z,4.00
2023-03-01T17:45:52.986Z,5.38
2023-03-01T17:48:20.544Z,4.55
2023-03-01T17:50:48.103Z,4.53
2023-03-01T17:53:16.201Z,3.72
2023-03-01T17:55:45.081Z,3.95
2023-03-01T17:58:16.582Z,3.15
2023-03-01T18:00:44.132Z,4.35
2023-03-01T18:03:11.899Z,3.45
2023-03-01T18:05:39.543Z,3.70
2023-03-01T18:08:07.213Z,4.03
2023-03-01T18:10:37.056Z,4.28
2023-03-01T18:13:05.906Z,3.90
2023-03-01T18:15:34.133Z,4.20
2023-03-01T18:18:01.747Z,4.15
2023-03-01T18:20:31.079Z,4.65
2023-03-01T18:22:59.241Z,4.50
2023-03-01T18:25:26.751Z,4.63
2023-03-01T18:27:54.325Z,15.68
2023-03-01T18:30:22.344Z,3.83
2023-03-01T18:32:52.187Z,3.42
2023-03-01T18:35:19.737Z,3.78
2023-03-01T18:37:47.277Z,4.68
2023-03-01T18:40:15.059Z,3.83
2023-03-01T18:42:45.878Z,4.38
2023-03-01T18:45:15.481Z,5.13
2023-03-01T18:47:43.308Z,4.55
2023-03-01T18:50:11.182Z,3.92
2023-03-01T18:52:39.062Z,4.80
2023-03-01T18:55:06.834Z,3.78
2023-03-01T18:57:35.030Z,4.50
2023-03-01T19:00:02.663Z,3.42
2023-03-01T19:02:30.363Z,3.88
2023-03-01T19:04:58.086Z,3.65
2023-03-01T19:07:26.126Z,3.92
2023-03-01T19:09:53.615Z,3.33
2023-03-01T19:12:21.263Z,4.43
2023-03-01T19:14:48.822Z,5.07
2023-03-01T19:17:16.532Z,4.03
2023-03-01T19:19:44.062Z,4.32
2023-03-01T19:22:11.593Z,4.00
2023-03-01T19:24:39.175Z,4.95
2023-03-01T19:27:06.712Z,4.03
2023-03-01T19:29:34.752Z,4.32
2023-03-01T19:32:02.259Z,4.85
2023-03-01T19:34:32.740Z,5.28
2023-03-01T19:37:00.260Z,4.25
2023-03-01T19:39:28.299Z,4.85
2023-03-01T19:41:57.138Z,4.13
2023-03-01T19:44:25.676Z,3.83
2023-03-01T19:46:54.336Z,4.15
2023-03-01T19:49:22.197Z,3.85
2023-03-01T19:51:49.765Z,6.82
2023-03-01T19:54:21.207Z,4.68
2023-03-01T19:56:49.389Z,5.20
2023-03-01T19:59:19.827Z,4.07
2023-03-01T20:01:47.483Z,6.85
2023-03-01T20:04:15.076Z,3.05
2023-03-01T20:06:45.262Z,3.65
2023-03-01T20:09:21.376Z,6.03
2023-03-01T20:11:50.103Z,6.97
2023-03-01T20:14:17.710Z,3.47
2023-03-01T20:16:45.350Z,5.07
2023-03-01T20:19:12.922Z,3.95
2023-03-01T20:21:40.483Z,3.95
2023-03-01T20:24:08.202Z,3.90
2023-03-01T20:26:35.969Z,4.03
2023-03-01T20:29:03.450Z,3.72
2023-03-01T20:31:31.072Z,4.15
2023-03-01T20:33:59.247Z,3.85
2023-03-01T20:36:27.303Z,3.78
2023-03-01T20:38:55.187Z,4.20
2023-03-01T20:41:24.884Z,3.10
2023-03-01T20:43:55.417Z,4.45
2023-03-01T20:46:24.467Z,3.65
2023-03-01T20:48:52.652Z,4.22
2023-03-01T20:51:20.633Z,4.72
2023-03-01T20:53:48.182Z,4.13
2023-03-01T20:56:19.365Z,3.63
2023-03-01T20:58:47.328Z,4.57
2023-03-01T21:01:20.171Z,4.55
2023-03-01T21:03:47.850Z,4.03
2023-03-01T21:06:15.621Z,4.32
2023-03-01T21:08:43.235Z,3.83
2023-03-01T21:11:10.817Z,4.22
2023-03-01T21:13:38.710Z,4.53
2023-03-01T21:16:14.008Z,4.30
2023-03-01T21:18:44.623Z,4.03
2023-03-01T21:21:13.415Z,5.20
2023-03-01T21:23:42.749Z,3.78
2023-03-01T21:26:15.552Z,4.75
2023-03-01T21:28:43.950Z,4.00
2023-03-01T21:31:22.681Z,3.78
2023-03-01T21:33:51.305Z,3.50
2023-03-01T21:36:19.555Z,3.50
2023-03-01T21:38:47.870Z,4.40
2023-03-01T21:41:42.888Z,3.40
2023-03-01T21:44:10.485Z,4.65
2023-03-01T21:46:39.659Z,4.85
2023-03-01T21:49:08.001Z,4.70
2023-03-01T21:51:37.188Z,3.40
2023-03-01T21:54:04.913Z,4.75
2023-03-01T21:56:35.120Z,4.47
2023-03-01T21:59:02.931Z,3.58
2023-03-01T22:01:30.721Z,3.42
2023-03-01T22:03:59.776Z,3.40
2023-03-01T22:06:30.339Z,3.58
2023-03-01T22:08:59.173Z,3.15
2023-03-01T22:11:28.630Z,3.85
2023-03-01T22:13:57.048Z,4.30
2023-03-01T22:16:26.564Z,4.60
2023-03-01T22:18:54.501Z,4.63
2023-03-01T22:21:23.745Z,3.97
2023-03-01T22:23:51.908Z,4.40
2023-03-01T22:26:27.323Z,3.75
2023-03-01T22:28:58.493Z,4.10
2023-03-01T22:31:26.251Z,4.32
2023-03-01T22:33:57.726Z,4.38
2023-03-01T22:36:25.391Z,3.72
2023-03-01T22:38:59.202Z,4.88
2023-03-01T22:41:28.770Z,4.40
2023-03-01T22:43:56.438Z,4.50
2023-03-01T22:46:25.340Z,6.05
2023-03-01T22:48:53.179Z,5.03
2023-03-01T22:51:25.165Z,6.22
2023-03-01T22:53:55.351Z,5.30
2023-03-01T22:56:24.396Z,6.72
2023-03-01T22:58:51.956Z,6.72
2023-03-01T23:01:21.110Z,7.10
2023-03-01T23:03:48.884Z,5.05
2023-03-01T23:06:18.298Z,4.00
2023-03-01T23:08:49.725Z,4.35
2023-03-01T23:11:18.265Z,5.57
2023-03-01T23:13:46.116Z,5.00
2023-03-01T23:16:13.741Z,4.50
2023-03-01T23:18:43.687Z,4.28
2023-03-01T23:21:13.033Z,7.75
2023-03-01T23:23:41.089Z,4.80
2023-03-01T23:26:08.848Z,4.50
2023-03-01T23:28:39.216Z,6.80
2023-03-01T23:31:08.033Z,7.13
2023-03-01T23:33:39.142Z,4.70
2023-03-01T23:36:06.848Z,7.07
2023-03-01T23:38:34.555Z,5.50
2023-03-01T23:41:02.098Z,5.90
2023-03-01T23:43:29.684Z,4.60
2023-03-01T23:45:57.906Z,5.35
2023-03-01T23:48:25.424Z,4.75
2023-03-01T23:50:53.641Z,3.53
2023-03-01T23:53:21.894Z,4.85
2023-03-01T23:55:54.454Z,4.82
2023-03-01T23:58:29.273Z,4.47
